createdAt,value
2023-11-19T00:00:03.458Z,1010.12
2023-11-19T00:10:04.065Z,1009.70
2023-11-19T00:20:04.567Z,1009.52
2023-11-19T00:30:05.146Z,1009.33
2023-11-19T00:40:05.703Z,1009.16
2023-11-19T00:50:06.272Z,1008.81
2023-11-19T01:00:06.777Z,1008.65
2023-11-19T01:10:07.376Z,1008.25
2023-11-19T01:20:07.874Z,1007.69
2023-11-19T01:30:08.437Z,1007.65
2023-11-19T01:40:09.056Z,1007.49
2023-11-19T01:50:09.603Z,1006.99
2023-11-19T02:00:10.126Z,1006.77
2023-11-19T02:10:10.681Z,1006.42
2023-11-19T02:20:11.207Z,1005.97
2023-11-19T02:30:11.772Z,1005.94
2023-11-19T02:40:12.358Z,1005.61
2023-11-19T02:50:12.902Z,1005.36
2023-11-19T03:00:13.596Z,1004.99
2023-11-19T03:10:14.213Z,1004.85
2023-11-19T03:20:14.720Z,1004.91
2023-11-19T03:30:15.297Z,1004.98
2023-11-19T03:40:15.841Z,1004.43
2023-11-19T03:50:16.376Z,1004.22
2023-11-19T04:00:16.913Z,1003.88
2023-11-19T04:10:17.512Z,1003.57
2023-11-19T04:20:18.085Z,1003.20
2023-11-19T04:30:18.662Z,1003.19
2023-11-19T04:40:19.422Z,1003.07
2023-11-19T04:50:20.048Z,1003.01
2023-11-19T05:00:22.262Z,1002.80
2023-11-19T05:10:21.124Z,1002.46
2023-11-19T05:20:21.661Z,1001.94
2023-11-19T05:30:22.308Z,1001.97
2023-11-19T05:40:22.855Z,1001.83
2023-11-19T05:50:23.407Z,1001.49
2023-11-19T06:00:23.924Z,1001.30
2023-11-19T06:10:24.505Z,1001.26
2023-11-19T06:20:25.057Z,1001.15
2023-11-19T06:30:25.579Z,1000.91
2023-11-19T06:40:26.102Z,1000.71
2023-11-19T06:50:26.731Z,1000.77
2023-11-19T07:00:27.201Z,1000.62
2023-11-19T07:10:27.741Z,1000.54
2023-11-19T07:20:28.211Z,1000.73
2023-11-19T07:30:28.732Z,1000.55
2023-11-19T07:40:29.206Z,1000.45
2023-11-19T07:50:29.761Z,1000.54
2023-11-19T08:00:30.198Z,1000.62
2023-11-19T08:10:30.721Z,1000.59
2023-11-19T08:20:31.211Z,1000.51
2023-11-19T08:30:31.691Z,1000.38
2023-11-19T08:40:32.170Z,1000.13
2023-11-19T08:50:32.696Z,1000.23
2023-11-19T09:00:33.163Z,1000.24
2023-11-19T09:10:33.683Z,1000.09
2023-11-19T09:20:34.233Z,1000.28
2023-11-19T09:30:34.766Z,1000.40
2023-11-19T09:40:35.312Z,1000.11
2023-11-19T09:50:35.853Z,1000.07
2023-11-19T10:00:36.292Z,1000.01
2023-11-19T10:10:36.824Z,1000.02
2023-11-19T10:20:37.360Z,999.92
2023-11-19T10:30:37.851Z,999.88
2023-11-19T10:40:38.372Z,999.67
2023-11-19T10:50:38.910Z,999.61
2023-11-19T11:00:39.359Z,999.62
2023-11-19T11:10:56.565Z,999.52
2023-11-19T11:20:41.743Z,999.49
2023-11-19T11:30:41.247Z,999.51
2023-11-19T11:40:41.702Z,999.51
2023-11-19T11:50:42.218Z,999.57
2023-11-19T12:00:42.728Z,999.40
2023-11-19T12:10:43.225Z,999.50
2023-11-19T12:20:43.742Z,999.48
2023-11-19T12:30:44.416Z,999.49
2023-11-19T12:40:44.929Z,999.46
2023-11-19T12:50:45.510Z,999.50
2023-11-19T13:00:46.041Z,999.59
2023-11-19T13:10:46.520Z,999.45
2023-11-19T13:20:47.162Z,999.40
2023-11-19T13:30:47.673Z,999.38
2023-11-19T13:40:48.162Z,999.37
2023-11-19T13:50:48.725Z,999.42
2023-11-19T14:00:49.276Z,999.53
2023-11-19T14:10:49.753Z,999.56
2023-11-19T14:20:50.304Z,999.61
2023-11-19T14:30:50.850Z,999.62
2023-11-19T14:40:51.359Z,999.55
2023-11-19T14:50:51.920Z,999.61
2023-11-19T15:00:52.585Z,999.69
2023-11-19T15:10:53.106Z,999.80
2023-11-19T15:20:53.573Z,999.80
2023-11-19T15:30:54.094Z,999.86
2023-11-19T15:40:54.562Z,999.95
2023-11-19T15:50:55.139Z,999.99
2023-11-19T16:00:55.661Z,1000.04
2023-11-19T16:10:56.273Z,1000.06
2023-11-19T16:20:56.833Z,1000.09
2023-11-19T16:30:57.380Z,1000.14
2023-11-19T16:40:57.914Z,1000.17
2023-11-19T17:00:59.022Z,1000.19
2023-11-19T17:10:59.540Z,1000.23
2023-11-19T17:21:00.065Z,1000.27
2023-11-19T17:31:00.978Z,1000.26
2023-11-19T17:41:01.501Z,1000.19
2023-11-19T17:51:04.356Z,1000.58
2023-11-19T18:01:02.628Z,1000.47
2023-11-19T18:11:03.350Z,1000.44
2023-11-19T18:21:03.901Z,1000.40
2023-11-19T18:31:04.517Z,1000.40
2023-11-19T18:41:05.091Z,1000.39
2023-11-19T18:51:05.689Z,1000.40
2023-11-19T19:01:06.194Z,1000.43
2023-11-19T19:11:06.833Z,1000.38
2023-11-19T19:21:07.443Z,1000.45
2023-11-19T19:31:08.109Z,1000.42
2023-11-19T19:41:08.899Z,1000.45
2023-11-19T19:51:09.482Z,1000.52
2023-11-19T20:01:10.446Z,1000.51
2023-11-19T20:11:10.766Z,1000.51
2023-11-19T20:21:11.040Z,1000.53
2023-11-19T20:31:11.610Z,1000.57
2023-11-19T20:41:12.848Z,1000.64
2023-11-19T20:51:12.573Z,1000.65
2023-11-19T21:01:13.237Z,1000.59
2023-11-19T21:11:13.787Z,1000.68
2023-11-19T21:21:14.325Z,1000.67
2023-11-19T21:31:14.981Z,1000.69
2023-11-19T21:41:15.658Z,1000.64
2023-11-19T21:51:16.246Z,1000.62
2023-11-19T22:01:17.185Z,1000.61
2023-11-19T22:11:17.306Z,1000.60
2023-11-19T22:21:17.827Z,1000.64
2023-11-19T22:31:18.529Z,1000.65
2023-11-19T22:41:19.086Z,1000.65
2023-11-19T22:51:19.653Z,1000.69
2023-11-19T23:01:20.238Z,1000.68
2023-11-19T23:11:20.793Z,1000.62
2023-11-19T23:21:21.321Z,1000.50
2023-11-19T23:31:21.943Z,1000.53
2023-11-19T23:41:22.460Z,1000.53
2023-11-19T23:51:23.046Z,1000.49
